FIN26CE EFHK-EYVI
Flight info
| Callsign | FIN26CE |
|---|---|
| Flight time | 0h 59m |
| Altitude | 35000 |
| Route | KOIVU DCT LARTI DCT KEXLE DCT DOLAT DCT IRBEX DCT ODLIT DCT MURUN |
| Aircraft | A20N/M-SDE2E3FGHIRWXY/LB1 |
Departure
| Time | 2026-04-26 11:10 |
|---|---|
| Airport | Helsinki Vantaa Airport (EFHK) |
Arrival
| Time | 2026-04-26 12:09 |
|---|---|
| Airport | Vilnius International Airport (EYVI) |
| Time | Latitude | Longitude | Altitude | Speed | Heading |
|---|---|---|---|---|---|
| 2026-04-26 10:50 | 60.31597 | 24.97306 | 161 ft | 0 kts | 243° |
| 2026-04-26 11:00 | 60.31599 | 24.97316 | 161 ft | 2 kts | 243° |
| 2026-04-26 11:00 | 60.31606 | 24.97343 | 161 ft | 2 kts | 243° |
| 2026-04-26 11:00 | 60.31613 | 24.97370 | 161 ft | 2 kts | 243° |
| 2026-04-26 11:00 | 60.31622 | 24.97394 | 161 ft | 2 kts | 206° |
| 2026-04-26 11:01 | 60.31632 | 24.97400 | 161 ft | 0 kts | 163° |
| 2026-04-26 11:05 | 60.31620 | 24.97408 | 161 ft | 8 kts | 161° |
| 2026-04-26 11:05 | 60.31531 | 24.97502 | 160 ft | 17 kts | 137° |
| 2026-04-26 11:05 | 60.31527 | 24.97631 | 160 ft | 5 kts | 98° |
| 2026-04-26 11:05 | 60.31475 | 24.97714 | 160 ft | 14 kts | 147° |
| 2026-04-26 11:06 | 60.31364 | 24.97826 | 159 ft | 10 kts | 155° |
| 2026-04-26 11:06 | 60.31303 | 24.97883 | 159 ft | 19 kts | 155° |
| 2026-04-26 11:06 | 60.31066 | 24.98125 | 158 ft | 37 kts | 151° |
| 2026-04-26 11:06 | 60.30836 | 24.98327 | 157 ft | 39 kts | 155° |
| 2026-04-26 11:07 | 60.30616 | 24.98533 | 156 ft | 19 kts | 133° |
| 2026-04-26 11:07 | 60.30681 | 24.98717 | 157 ft | 21 kts | 31° |
| 2026-04-26 11:07 | 60.30754 | 24.98781 | 158 ft | 0 kts | 337° |
| 2026-04-26 11:07 | 60.30769 | 24.98767 | 159 ft | 0 kts | 332° |
| 2026-04-26 11:09 | 60.30789 | 24.98746 | 158 ft | 21 kts | 332° |
| 2026-04-26 11:09 | 60.31135 | 24.98390 | 159 ft | 87 kts | 333° |
| 2026-04-26 11:09 | 60.31835 | 24.97670 | 179 ft | 134 kts | 333° |
| 2026-04-26 11:09 | 60.32718 | 24.96782 | 558 ft | 151 kts | 329° |
| 2026-04-26 11:10 | 60.33392 | 24.95127 | 1359 ft | 161 kts | 290° |
| 2026-04-26 11:10 | 60.33711 | 24.92990 | 2147 ft | 161 kts | 287° |
| 2026-04-26 11:10 | 60.34052 | 24.90702 | 2587 ft | 179 kts | 287° |
| 2026-04-26 11:10 | 60.34379 | 24.88131 | 3003 ft | 201 kts | 279° |
| 2026-04-26 11:11 | 60.34377 | 24.85141 | 3486 ft | 226 kts | 262° |
| 2026-04-26 11:11 | 60.33945 | 24.81996 | 4076 ft | 246 kts | 251° |
| 2026-04-26 11:11 | 60.33196 | 24.78755 | 5028 ft | 252 kts | 245° |
| 2026-04-26 11:11 | 60.32354 | 24.75643 | 6051 ft | 255 kts | 244° |
| 2026-04-26 11:12 | 60.31475 | 24.72506 | 6948 ft | 259 kts | 243° |
| 2026-04-26 11:12 | 60.30452 | 24.69493 | 7845 ft | 267 kts | 227° |
| 2026-04-26 11:12 | 60.28832 | 24.67555 | 8762 ft | 278 kts | 200° |
| 2026-04-26 11:12 | 60.27559 | 24.67112 | 9378 ft | 284 kts | 187° |
| 2026-04-26 11:13 | 60.24889 | 24.67097 | 10302 ft | 301 kts | 181° |
| 2026-04-26 11:13 | 60.22711 | 24.67248 | 10618 ft | 323 kts | 181° |
| 2026-04-26 11:13 | 60.21319 | 24.67315 | 10876 ft | 333 kts | 182° |
| 2026-04-26 11:13 | 60.18196 | 24.67365 | 11968 ft | 337 kts | 184° |
| 2026-04-26 11:14 | 60.16636 | 24.67354 | 12554 ft | 337 kts | 184° |
| 2026-04-26 11:14 | 60.14328 | 24.67312 | 13436 ft | 339 kts | 184° |
| 2026-04-26 11:14 | 60.11964 | 24.67254 | 14198 ft | 342 kts | 185° |
| 2026-04-26 11:14 | 60.09553 | 24.67188 | 14970 ft | 344 kts | 185° |
| 2026-04-26 11:15 | 60.07143 | 24.67119 | 15716 ft | 347 kts | 185° |
| 2026-04-26 11:15 | 60.04714 | 24.67052 | 16449 ft | 349 kts | 185° |
| 2026-04-26 11:15 | 60.02292 | 24.66987 | 17155 ft | 352 kts | 185° |
| 2026-04-26 11:15 | 59.99822 | 24.66925 | 17884 ft | 355 kts | 185° |
| 2026-04-26 11:16 | 59.97343 | 24.66865 | 18511 ft | 358 kts | 185° |
| 2026-04-26 11:16 | 59.94834 | 24.66802 | 19113 ft | 361 kts | 185° |
| 2026-04-26 11:16 | 59.92332 | 24.66739 | 19683 ft | 365 kts | 185° |
| 2026-04-26 11:16 | 59.89794 | 24.66676 | 20264 ft | 367 kts | 185° |
| 2026-04-26 11:17 | 59.87220 | 24.66612 | 20864 ft | 371 kts | 185° |
| 2026-04-26 11:17 | 59.84647 | 24.66375 | 21426 ft | 371 kts | 191° |
| 2026-04-26 11:17 | 59.82099 | 24.65500 | 21973 ft | 371 kts | 197° |
| 2026-04-26 11:17 | 59.79578 | 24.64272 | 22547 ft | 374 kts | 198° |
| 2026-04-26 11:18 | 59.77033 | 24.63045 | 23123 ft | 377 kts | 198° |
| 2026-04-26 11:18 | 59.74480 | 24.61831 | 23611 ft | 381 kts | 197° |
| 2026-04-26 11:18 | 59.71872 | 24.60598 | 23963 ft | 386 kts | 197° |
| 2026-04-26 11:18 | 59.69326 | 24.59516 | 24332 ft | 394 kts | 191° |
| 2026-04-26 11:19 | 59.66563 | 24.59566 | 24728 ft | 406 kts | 175° |
| 2026-04-26 11:19 | 59.63797 | 24.61123 | 25095 ft | 419 kts | 160° |
| 2026-04-26 11:19 | 59.61171 | 24.63643 | 25458 ft | 425 kts | 156° |
| 2026-04-26 11:19 | 59.58556 | 24.66373 | 25838 ft | 429 kts | 156° |
| 2026-04-26 11:20 | 59.55916 | 24.69126 | 26215 ft | 433 kts | 156° |
| 2026-04-26 11:20 | 59.54134 | 24.70953 | 26427 ft | 436 kts | 156° |
| 2026-04-26 11:20 | 59.50487 | 24.74619 | 26902 ft | 441 kts | 156° |
| 2026-04-26 11:20 | 59.47745 | 24.77338 | 27247 ft | 445 kts | 156° |
| 2026-04-26 11:21 | 59.44971 | 24.80072 | 27585 ft | 448 kts | 157° |
| 2026-04-26 11:21 | 59.42125 | 24.82428 | 27898 ft | 448 kts | 165° |
| 2026-04-26 11:21 | 59.39058 | 24.83913 | 28197 ft | 448 kts | 175° |
| 2026-04-26 11:21 | 59.36005 | 24.84454 | 28497 ft | 447 kts | 181° |
| 2026-04-26 11:22 | 59.32827 | 24.84748 | 28796 ft | 451 kts | 181° |
| 2026-04-26 11:22 | 59.29728 | 24.85058 | 29088 ft | 455 kts | 181° |
| 2026-04-26 11:22 | 59.26543 | 24.85391 | 29337 ft | 459 kts | 181° |
| 2026-04-26 11:22 | 59.23361 | 24.85730 | 29642 ft | 462 kts | 180° |
| 2026-04-26 11:23 | 59.20142 | 24.86085 | 29896 ft | 465 kts | 176° |
| 2026-04-26 11:23 | 59.16879 | 24.86549 | 30135 ft | 468 kts | 180° |
| 2026-04-26 11:23 | 59.13652 | 24.86873 | 30375 ft | 470 kts | 181° |
| 2026-04-26 11:23 | 59.10342 | 24.87167 | 30656 ft | 472 kts | 181° |
| 2026-04-26 11:24 | 59.07031 | 24.87475 | 30938 ft | 474 kts | 181° |
| 2026-04-26 11:24 | 59.03727 | 24.87806 | 31265 ft | 475 kts | 181° |
| 2026-04-26 11:24 | 59.00430 | 24.88150 | 31575 ft | 476 kts | 181° |
| 2026-04-26 11:24 | 58.97121 | 24.88499 | 31935 ft | 476 kts | 181° |
| 2026-04-26 11:25 | 58.93814 | 24.88850 | 32272 ft | 475 kts | 181° |
| 2026-04-26 11:25 | 58.90512 | 24.89200 | 32589 ft | 475 kts | 181° |
| 2026-04-26 11:25 | 58.87203 | 24.89548 | 32902 ft | 476 kts | 181° |
| 2026-04-26 11:25 | 58.83894 | 24.89895 | 33216 ft | 476 kts | 181° |
| 2026-04-26 11:26 | 58.80589 | 24.90241 | 33546 ft | 476 kts | 181° |
| 2026-04-26 11:26 | 58.77326 | 24.90582 | 33834 ft | 475 kts | 181° |
| 2026-04-26 11:26 | 58.74011 | 24.90927 | 34055 ft | 476 kts | 180° |
| 2026-04-26 11:26 | 58.70703 | 24.91271 | 34297 ft | 476 kts | 180° |
| 2026-04-26 11:27 | 58.67398 | 24.91613 | 34548 ft | 476 kts | 180° |
| 2026-04-26 11:27 | 58.64088 | 24.91956 | 34740 ft | 477 kts | 180° |
| 2026-04-26 11:27 | 58.57370 | 24.92644 | 34774 ft | 488 kts | 180° |
| 2026-04-26 11:28 | 58.50526 | 24.93346 | 34779 ft | 497 kts | 180° |
| 2026-04-26 11:28 | 58.43569 | 24.94060 | 34789 ft | 503 kts | 180° |
| 2026-04-26 11:29 | 58.36595 | 24.94773 | 34784 ft | 506 kts | 180° |
| 2026-04-26 11:29 | 58.29532 | 24.95491 | 34781 ft | 509 kts | 180° |
| 2026-04-26 11:30 | 58.23635 | 24.96089 | 34780 ft | 511 kts | 180° |
| 2026-04-26 11:30 | 58.15313 | 24.96928 | 34781 ft | 511 kts | 180° |
| 2026-04-26 11:31 | 58.11829 | 24.97284 | 34779 ft | 492 kts | 180° |
| 2026-04-26 11:31 | 58.08471 | 24.97629 | 34783 ft | 475 kts | 180° |
| 2026-04-26 11:31 | 58.01923 | 24.98279 | 34790 ft | 475 kts | 181° |
| 2026-04-26 11:32 | 57.95315 | 24.98284 | 34792 ft | 477 kts | 184° |
| 2026-04-26 11:32 | 57.88672 | 24.98165 | 34790 ft | 477 kts | 184° |
| 2026-04-26 11:33 | 57.82024 | 24.98057 | 34791 ft | 478 kts | 184° |
| 2026-04-26 11:33 | 57.75364 | 24.97952 | 34788 ft | 478 kts | 184° |
| 2026-04-26 11:34 | 57.68714 | 24.97848 | 34790 ft | 478 kts | 184° |
| 2026-04-26 11:34 | 57.62059 | 24.97745 | 34782 ft | 478 kts | 184° |
| 2026-04-26 11:35 | 57.55402 | 24.97641 | 34789 ft | 478 kts | 184° |
| 2026-04-26 11:35 | 57.49867 | 24.97555 | 34779 ft | 478 kts | 184° |
| 2026-04-26 11:36 | 57.42128 | 24.97436 | 34787 ft | 479 kts | 184° |
| 2026-04-26 11:36 | 57.35440 | 24.97334 | 34785 ft | 479 kts | 184° |
| 2026-04-26 11:37 | 57.28770 | 24.97231 | 34788 ft | 480 kts | 184° |
| 2026-04-26 11:37 | 57.22061 | 24.97114 | 34797 ft | 481 kts | 184° |
| 2026-04-26 11:38 | 57.15387 | 24.97025 | 34801 ft | 482 kts | 184° |
| 2026-04-26 11:38 | 57.08674 | 24.96930 | 34805 ft | 483 kts | 184° |
| 2026-04-26 11:39 | 57.01960 | 24.96830 | 34822 ft | 483 kts | 184° |
| 2026-04-26 11:39 | 56.95222 | 24.96728 | 34814 ft | 484 kts | 184° |
| 2026-04-26 11:40 | 56.88473 | 24.96627 | 34833 ft | 484 kts | 184° |
| 2026-04-26 11:40 | 56.81721 | 24.96526 | 34828 ft | 485 kts | 184° |
| 2026-04-26 11:42 | 56.54728 | 24.96126 | 34823 ft | 486 kts | 184° |
| 2026-04-26 11:43 | 56.47938 | 24.96018 | 34832 ft | 492 kts | 182° |
| 2026-04-26 11:43 | 56.44485 | 24.95958 | 34647 ft | 499 kts | 182° |
| 2026-04-26 11:43 | 56.41002 | 24.95905 | 34252 ft | 499 kts | 182° |
| 2026-04-26 11:44 | 56.37528 | 24.95856 | 33793 ft | 498 kts | 182° |
| 2026-04-26 11:44 | 56.34073 | 24.95746 | 33267 ft | 496 kts | 184° |
| 2026-04-26 11:44 | 56.30618 | 24.95474 | 32746 ft | 498 kts | 185° |
| 2026-04-26 11:44 | 56.27147 | 24.95153 | 32237 ft | 501 kts | 185° |
| 2026-04-26 11:45 | 56.23651 | 24.94837 | 31729 ft | 503 kts | 185° |
| 2026-04-26 11:45 | 56.20148 | 24.94539 | 31238 ft | 505 kts | 185° |
| 2026-04-26 11:45 | 56.16633 | 24.94253 | 30759 ft | 507 kts | 185° |
| 2026-04-26 11:45 | 56.13101 | 24.93974 | 30282 ft | 507 kts | 185° |
| 2026-04-26 11:46 | 56.09631 | 24.93703 | 29802 ft | 505 kts | 185° |
| 2026-04-26 11:46 | 56.06139 | 24.93433 | 29225 ft | 500 kts | 185° |
| 2026-04-26 11:46 | 56.02679 | 24.93165 | 28660 ft | 494 kts | 185° |
| 2026-04-26 11:46 | 55.99270 | 24.92902 | 28110 ft | 488 kts | 185° |
| 2026-04-26 11:47 | 55.95894 | 24.92641 | 27566 ft | 482 kts | 185° |
| 2026-04-26 11:47 | 55.92563 | 24.92383 | 27032 ft | 476 kts | 185° |
| 2026-04-26 11:47 | 55.89269 | 24.92129 | 26504 ft | 471 kts | 185° |
| 2026-04-26 11:47 | 55.86017 | 24.91878 | 26010 ft | 465 kts | 185° |
| 2026-04-26 11:48 | 55.82802 | 24.91631 | 25493 ft | 460 kts | 185° |
| 2026-04-26 11:48 | 55.79611 | 24.91385 | 24998 ft | 457 kts | 185° |
| 2026-04-26 11:48 | 55.76448 | 24.91142 | 24511 ft | 453 kts | 185° |
| 2026-04-26 11:48 | 55.73312 | 24.90902 | 24038 ft | 449 kts | 185° |
| 2026-04-26 11:49 | 55.70212 | 24.90665 | 23568 ft | 444 kts | 185° |
| 2026-04-26 11:49 | 55.67131 | 24.90709 | 23027 ft | 441 kts | 176° |
| 2026-04-26 11:49 | 55.64117 | 24.91585 | 22460 ft | 438 kts | 168° |
| 2026-04-26 11:49 | 55.61153 | 24.92737 | 21891 ft | 433 kts | 168° |
| 2026-04-26 11:50 | 55.58221 | 24.93871 | 21335 ft | 429 kts | 168° |
| 2026-04-26 11:50 | 55.55320 | 24.94982 | 20807 ft | 424 kts | 168° |
| 2026-04-26 11:50 | 55.52449 | 24.96075 | 20263 ft | 420 kts | 168° |
| 2026-04-26 11:50 | 55.49609 | 24.97153 | 19740 ft | 416 kts | 168° |
| 2026-04-26 11:51 | 55.46790 | 24.98216 | 19210 ft | 411 kts | 168° |
| 2026-04-26 11:51 | 55.44064 | 24.99221 | 18735 ft | 407 kts | 168° |
| 2026-04-26 11:51 | 55.41272 | 25.00245 | 18224 ft | 403 kts | 168° |
| 2026-04-26 11:51 | 55.38548 | 25.01243 | 17672 ft | 399 kts | 168° |
| 2026-04-26 11:52 | 55.35833 | 25.02245 | 17099 ft | 396 kts | 168° |
| 2026-04-26 11:52 | 55.34083 | 25.02859 | 16736 ft | 393 kts | 173° |
| 2026-04-26 11:52 | 55.30425 | 25.02815 | 15993 ft | 386 kts | 186° |
| 2026-04-26 11:52 | 55.27756 | 25.02493 | 15446 ft | 384 kts | 186° |
| 2026-04-26 11:53 | 55.25097 | 25.02164 | 14927 ft | 381 kts | 186° |
| 2026-04-26 11:53 | 55.22460 | 25.01844 | 14403 ft | 379 kts | 186° |
| 2026-04-26 11:53 | 55.19842 | 25.01533 | 13884 ft | 376 kts | 187° |
| 2026-04-26 11:54 | 55.14757 | 25.00945 | 12773 ft | 356 kts | 187° |
| 2026-04-26 11:54 | 55.12346 | 25.00669 | 12224 ft | 348 kts | 187° |
| 2026-04-26 11:54 | 55.09918 | 25.00389 | 11668 ft | 341 kts | 187° |
| 2026-04-26 11:54 | 55.07575 | 25.00119 | 11135 ft | 334 kts | 187° |
| 2026-04-26 11:55 | 55.05272 | 24.99853 | 10603 ft | 329 kts | 188° |
| 2026-04-26 11:55 | 55.03009 | 24.99591 | 10082 ft | 323 kts | 188° |
| 2026-04-26 11:55 | 55.00805 | 24.99337 | 9560 ft | 319 kts | 188° |
| 2026-04-26 11:55 | 54.98608 | 24.99085 | 9001 ft | 315 kts | 187° |
| 2026-04-26 11:56 | 54.96434 | 24.98855 | 8450 ft | 311 kts | 187° |
| 2026-04-26 11:56 | 54.94290 | 24.98626 | 7912 ft | 306 kts | 187° |
| 2026-04-26 11:56 | 54.92196 | 24.98394 | 7588 ft | 295 kts | 187° |
| 2026-04-26 11:56 | 54.90404 | 24.98183 | 7340 ft | 285 kts | 188° |
| 2026-04-26 11:57 | 54.88465 | 24.97940 | 7073 ft | 273 kts | 189° |
| 2026-04-26 11:57 | 54.86597 | 24.97707 | 6805 ft | 266 kts | 189° |
| 2026-04-26 11:57 | 54.84741 | 24.97477 | 6553 ft | 268 kts | 188° |
| 2026-04-26 11:57 | 54.82889 | 24.97256 | 6300 ft | 266 kts | 188° |
| 2026-04-26 11:58 | 54.81045 | 24.97042 | 6050 ft | 267 kts | 188° |
| 2026-04-26 11:58 | 54.79154 | 24.96824 | 5993 ft | 275 kts | 188° |
| 2026-04-26 11:58 | 54.77259 | 24.96609 | 5987 ft | 268 kts | 188° |
| 2026-04-26 11:58 | 54.75486 | 24.96418 | 5977 ft | 251 kts | 188° |
| 2026-04-26 11:59 | 54.74336 | 24.96296 | 5992 ft | 240 kts | 189° |
| 2026-04-26 11:59 | 54.72639 | 24.96103 | 5994 ft | 245 kts | 189° |
| 2026-04-26 11:59 | 54.70945 | 24.95908 | 5983 ft | 243 kts | 189° |
| 2026-04-26 11:59 | 54.68710 | 24.95652 | 5991 ft | 244 kts | 189° |
| 2026-04-26 12:00 | 54.67562 | 24.95522 | 5985 ft | 244 kts | 189° |
| 2026-04-26 12:00 | 54.65328 | 24.95268 | 5992 ft | 243 kts | 189° |
| 2026-04-26 12:00 | 54.64185 | 24.95139 | 5989 ft | 244 kts | 189° |
| 2026-04-26 12:00 | 54.62517 | 24.94951 | 5990 ft | 243 kts | 189° |
| 2026-04-26 12:01 | 54.60822 | 24.94760 | 5992 ft | 244 kts | 189° |
| 2026-04-26 12:01 | 54.59122 | 24.94683 | 5948 ft | 248 kts | 175° |
| 2026-04-26 12:01 | 54.57496 | 24.95720 | 5668 ft | 252 kts | 150° |
| 2026-04-26 12:01 | 54.55990 | 24.97314 | 5274 ft | 255 kts | 147° |
| 2026-04-26 12:02 | 54.54500 | 24.98980 | 4886 ft | 257 kts | 147° |
| 2026-04-26 12:02 | 54.52984 | 25.00659 | 4486 ft | 259 kts | 148° |
| 2026-04-26 12:02 | 54.51457 | 25.02322 | 4085 ft | 259 kts | 148° |
| 2026-04-26 12:02 | 54.49927 | 25.03961 | 3682 ft | 259 kts | 149° |
| 2026-04-26 12:03 | 54.48508 | 25.05796 | 3264 ft | 252 kts | 127° |
| 2026-04-26 12:03 | 54.47713 | 25.08348 | 3026 ft | 234 kts | 106° |
| 2026-04-26 12:03 | 54.47130 | 25.10846 | 2983 ft | 215 kts | 107° |
| 2026-04-26 12:03 | 54.46631 | 25.13166 | 3016 ft | 204 kts | 93° |
| 2026-04-26 12:04 | 54.46766 | 25.15470 | 2989 ft | 190 kts | 53° |
| 2026-04-26 12:04 | 54.47550 | 25.17142 | 2989 ft | 175 kts | 28° |
| 2026-04-26 12:04 | 54.48531 | 25.18223 | 2983 ft | 155 kts | 17° |
| 2026-04-26 12:04 | 54.49455 | 25.18952 | 2996 ft | 142 kts | 11° |
| 2026-04-26 12:05 | 54.50382 | 25.19567 | 2996 ft | 145 kts | 11° |
| 2026-04-26 12:05 | 54.51322 | 25.20221 | 2989 ft | 146 kts | 12° |
| 2026-04-26 12:05 | 54.52271 | 25.20876 | 2867 ft | 146 kts | 12° |
| 2026-04-26 12:05 | 54.53190 | 25.21515 | 2646 ft | 136 kts | 11° |
| 2026-04-26 12:06 | 54.54002 | 25.22080 | 2468 ft | 117 kts | 9° |
| 2026-04-26 12:06 | 54.54717 | 25.22573 | 2313 ft | 106 kts | 8° |
| 2026-04-26 12:06 | 54.55426 | 25.23050 | 2174 ft | 112 kts | 8° |
| 2026-04-26 12:06 | 54.56142 | 25.23550 | 2022 ft | 111 kts | 7° |
| 2026-04-26 12:07 | 54.56871 | 25.24047 | 1857 ft | 113 kts | 9° |
| 2026-04-26 12:07 | 54.57590 | 25.24538 | 1699 ft | 110 kts | 8° |
| 2026-04-26 12:07 | 54.58297 | 25.25024 | 1493 ft | 108 kts | 11° |
| 2026-04-26 12:07 | 54.59002 | 25.25525 | 1345 ft | 112 kts | 10° |
| 2026-04-26 12:08 | 54.59727 | 25.26019 | 1217 ft | 114 kts | 12° |
| 2026-04-26 12:08 | 54.60474 | 25.26541 | 1061 ft | 119 kts | 13° |
| 2026-04-26 12:08 | 54.61251 | 25.27083 | 890 ft | 120 kts | 15° |
| 2026-04-26 12:08 | 54.62013 | 25.27616 | 717 ft | 116 kts | 16° |
| 2026-04-26 12:09 | 54.62754 | 25.28126 | 602 ft | 111 kts | 17° |
| 2026-04-26 12:09 | 54.63216 | 25.28438 | 606 ft | 42 kts | 22° |
| 2026-04-26 12:09 | 54.63416 | 25.28542 | 616 ft | 17 kts | 340° |
| 2026-04-26 12:09 | 54.63469 | 25.28415 | 621 ft | 12 kts | 335° |
| 2026-04-26 12:10 | 54.63536 | 25.28390 | 625 ft | 1 kts | 350° |
| 2026-04-26 12:10 | 54.63537 | 25.28390 | 625 ft | 0 kts | 350° |
| 2026-04-26 12:10 | 54.63561 | 25.28382 | 618 ft | 10 kts | 349° |
| 2026-04-26 12:10 | 54.63639 | 25.28355 | 626 ft | 12 kts | 348° |
| 2026-04-26 12:11 | 54.63720 | 25.28323 | 625 ft | 12 kts | 346° |
| 2026-04-26 12:11 | 54.63799 | 25.28287 | 626 ft | 11 kts | 345° |
| 2026-04-26 12:11 | 54.63871 | 25.28257 | 630 ft | 11 kts | 350° |
| 2026-04-26 12:11 | 54.63946 | 25.28234 | 638 ft | 11 kts | 349° |
| 2026-04-26 12:12 | 54.64029 | 25.28204 | 639 ft | 14 kts | 347° |
| 2026-04-26 12:12 | 54.64126 | 25.28165 | 640 ft | 12 kts | 354° |
| 2026-04-26 12:12 | 54.64217 | 25.28203 | 641 ft | 13 kts | 4° |
| 2026-04-26 12:12 | 54.64232 | 25.28203 | 640 ft | 1 kts | 0° |
| 2026-04-26 12:13 | 54.64235 | 25.28203 | 639 ft | 0 kts | 1° |